createdAt,value
2023-05-05T00:00:15.641Z,6.72
2023-05-05T00:02:42.278Z,6.37
2023-05-05T00:05:08.984Z,6.32
2023-05-05T00:07:35.364Z,5.93
2023-05-05T00:10:01.939Z,6.50
2023-05-05T00:12:28.627Z,5.97
2023-05-05T00:14:55.069Z,6.20
2023-05-05T00:17:21.719Z,6.15
2023-05-05T00:19:48.101Z,6.38
2023-05-05T00:22:15.279Z,6.70
2023-05-05T00:24:41.646Z,6.53
2023-05-05T00:27:08.030Z,6.97
2023-05-05T00:29:34.427Z,6.75
2023-05-05T00:32:00.882Z,5.72
2023-05-05T00:34:27.270Z,6.78
2023-05-05T00:36:54.097Z,6.00
2023-05-05T00:39:20.566Z,6.40
2023-05-05T00:41:46.923Z,6.55
2023-05-05T00:44:13.308Z,6.45
2023-05-05T00:46:41.717Z,7.10
2023-05-05T00:49:08.363Z,6.82
2023-05-05T00:51:35.048Z,6.50
2023-05-05T00:54:01.702Z,6.30
2023-05-05T00:56:28.480Z,6.57
2023-05-05T00:58:55.066Z,6.65
2023-05-05T01:01:21.545Z,6.30
2023-05-05T01:03:48.059Z,6.23
2023-05-05T01:06:37.603Z,5.45
2023-05-05T01:09:17.141Z,5.93
2023-05-05T01:11:56.347Z,6.43
2023-05-05T01:14:36.794Z,6.30
2023-05-05T01:17:23.921Z,6.37
2023-05-05T01:23:06.243Z,5.88
2023-05-05T01:26:10.385Z,6.28
2023-05-05T01:29:23.762Z,5.80
2023-05-05T01:31:54.612Z,6.23
2023-05-05T01:34:26.258Z,7.53
2023-05-05T01:36:58.283Z,6.55
2023-05-05T01:39:30.411Z,6.65
2023-05-05T01:41:59.988Z,6.32
2023-05-05T01:44:28.273Z,6.53
2023-05-05T01:46:55.762Z,6.50
2023-05-05T01:49:22.801Z,6.63
2023-05-05T01:51:49.954Z,6.53
2023-05-05T01:54:18.685Z,6.78
2023-05-05T01:56:46.369Z,7.07
2023-05-05T01:59:13.520Z,6.32
2023-05-05T02:01:41.797Z,6.70
2023-05-05T02:04:12.905Z,7.30
2023-05-05T02:06:40.364Z,6.28
2023-05-05T02:09:08.503Z,6.23
2023-05-05T02:11:35.155Z,6.15
2023-05-05T02:14:02.290Z,6.18
2023-05-05T02:16:31.098Z,6.05
2023-05-05T02:19:01.347Z,6.10
2023-05-05T02:21:28.608Z,6.30
2023-05-05T02:23:55.639Z,6.22
2023-05-05T02:26:23.694Z,5.88
2023-05-05T02:29:12.047Z,6.20
2023-05-05T02:31:44.296Z,6.03
2023-05-05T02:34:13.187Z,5.80
2023-05-05T02:36:42.357Z,5.72
2023-05-05T02:39:26.144Z,5.40
2023-05-05T02:41:55.215Z,4.93
2023-05-05T02:44:24.674Z,5.55
2023-05-05T02:46:51.820Z,5.57
2023-05-05T02:49:18.298Z,5.47
2023-05-05T02:51:44.675Z,5.63
2023-05-05T02:54:11.283Z,5.75
2023-05-05T02:56:42.944Z,5.70
2023-05-05T02:59:29.636Z,5.03
2023-05-05T03:02:17.804Z,5.50
2023-05-05T03:04:51.682Z,5.30
2023-05-05T03:07:25.630Z,5.20
2023-05-05T03:10:03.359Z,4.95
2023-05-05T03:12:37.478Z,4.63
2023-05-05T03:15:08.653Z,4.45
2023-05-05T03:17:36.734Z,4.45
2023-05-05T03:20:06.925Z,5.18
2023-05-05T03:22:37.420Z,4.55
2023-05-05T03:25:05.035Z,5.23
2023-05-05T03:27:31.514Z,4.50
2023-05-05T03:29:57.965Z,4.10
2023-05-05T03:32:24.450Z,4.28
2023-05-05T03:34:50.861Z,3.80
2023-05-05T03:37:17.219Z,4.83
2023-05-05T03:39:43.600Z,4.50
2023-05-05T03:42:10.006Z,4.30
2023-05-05T03:44:36.545Z,4.15
2023-05-05T03:47:02.958Z,4.13
2023-05-05T03:49:29.353Z,3.97
2023-05-05T03:51:55.718Z,3.95
2023-05-05T03:54:22.145Z,3.75
2023-05-05T03:56:48.587Z,4.13
2023-05-05T03:59:14.951Z,4.07
2023-05-05T04:01:41.489Z,3.87
2023-05-05T04:04:09.433Z,4.32
2023-05-05T04:06:35.939Z,4.72
2023-05-05T04:09:02.728Z,5.00
2023-05-05T04:11:29.187Z,4.40
2023-05-05T04:13:55.569Z,4.93
2023-05-05T04:16:22.027Z,4.35
2023-05-05T04:18:48.491Z,4.70
2023-05-05T04:21:14.939Z,4.55
2023-05-05T04:23:41.321Z,4.22
2023-05-05T04:26:07.773Z,5.27
2023-05-05T04:28:34.279Z,4.75
2023-05-05T04:31:01.379Z,4.85
2023-05-05T04:33:27.804Z,4.43
2023-05-05T04:35:54.182Z,4.68
2023-05-05T04:38:21.109Z,4.97
2023-05-05T04:40:47.568Z,5.32
2023-05-05T04:43:13.982Z,4.95
2023-05-05T04:45:40.376Z,4.35
2023-05-05T04:48:06.939Z,4.45
2023-05-05T04:50:33.322Z,5.00
2023-05-05T04:52:59.791Z,4.65
2023-05-05T04:55:26.190Z,4.22
2023-05-05T04:57:52.550Z,4.50
2023-05-05T05:00:19.070Z,4.65
2023-05-05T05:02:45.556Z,4.33
2023-05-05T05:05:12.185Z,4.72
2023-05-05T05:07:38.609Z,5.03
2023-05-05T05:10:05.730Z,4.72
2023-05-05T05:12:32.331Z,4.57
2023-05-05T05:14:58.793Z,4.57
2023-05-05T05:17:26.763Z,4.28
2023-05-05T05:19:55.140Z,4.97
2023-05-05T05:22:21.791Z,4.93
2023-05-05T05:24:48.168Z,5.00
2023-05-05T05:27:14.540Z,4.63
2023-05-05T05:29:41.012Z,4.90
2023-05-05T05:32:07.469Z,5.10
2023-05-05T05:34:33.933Z,5.07
2023-05-05T05:37:00.398Z,5.47
2023-05-05T05:39:26.861Z,5.37
2023-05-05T05:41:53.277Z,4.93
2023-05-05T05:44:19.834Z,5.20
2023-05-05T05:46:46.339Z,5.78
2023-05-05T05:49:12.868Z,5.30
2023-05-05T05:51:39.348Z,6.63
2023-05-05T05:54:05.783Z,5.35
2023-05-05T05:56:32.236Z,5.80
2023-05-05T05:58:58.679Z,6.93
2023-05-05T06:01:25.102Z,6.50
2023-05-05T06:03:51.672Z,6.70
2023-05-05T06:06:18.209Z,6.30
2023-05-05T06:08:44.666Z,6.88
2023-05-05T06:11:11.053Z,7.03
2023-05-05T06:13:37.506Z,7.30
2023-05-05T06:16:04.055Z,6.50
2023-05-05T06:18:30.420Z,6.32
2023-05-05T06:20:57.249Z,6.60
2023-05-05T06:23:23.745Z,6.72
2023-05-05T06:25:50.837Z,6.07
2023-05-05T06:28:18.655Z,6.30
2023-05-05T06:30:45.058Z,5.68
2023-05-05T06:33:11.420Z,5.45
2023-05-05T06:35:37.878Z,4.47
2023-05-05T06:38:04.350Z,4.43
2023-05-05T06:40:31.815Z,4.60
2023-05-05T06:42:58.190Z,4.45
2023-05-05T06:45:24.553Z,4.47
2023-05-05T06:47:50.976Z,4.78
2023-05-05T06:50:17.511Z,4.55
2023-05-05T06:52:43.941Z,4.50
2023-05-05T06:55:10.447Z,3.70
2023-05-05T06:57:36.821Z,4.30
2023-05-05T07:00:09.778Z,4.65
2023-05-05T07:02:36.482Z,4.53
2023-05-05T07:05:03.009Z,4.00
2023-05-05T07:07:29.437Z,4.53
2023-05-05T07:09:55.872Z,4.07
2023-05-05T07:12:22.452Z,3.83
2023-05-05T07:14:48.897Z,3.92
2023-05-05T07:17:15.463Z,3.90
2023-05-05T07:19:41.942Z,3.97
2023-05-05T07:22:08.345Z,4.30
2023-05-05T07:24:34.800Z,3.78
2023-05-05T07:27:12.425Z,4.28
2023-05-05T07:29:38.973Z,3.33
2023-05-05T07:32:06.640Z,2.88
2023-05-05T07:34:34.657Z,3.40
2023-05-05T07:37:01.363Z,3.20
2023-05-05T07:39:27.823Z,2.95
2023-05-05T07:42:03.686Z,2.77
2023-05-05T07:44:30.576Z,2.53
2023-05-05T07:46:57.046Z,2.63
2023-05-05T07:50:18.301Z,3.10
2023-05-05T07:53:10.806Z,2.72
2023-05-05T07:55:41.437Z,2.83
2023-05-05T07:58:08.536Z,2.85
2023-05-05T08:00:35.647Z,2.83
2023-05-05T08:03:02.141Z,2.55
2023-05-05T08:05:29.763Z,2.95
2023-05-05T08:07:56.726Z,2.30
2023-05-05T08:10:28.634Z,2.47
2023-05-05T08:12:55.120Z,2.55
2023-05-05T08:15:21.724Z,2.05
2023-05-05T08:17:50.800Z,1.92
2023-05-05T08:20:21.079Z,2.67
2023-05-05T08:22:48.022Z,2.17
2023-05-05T08:25:21.795Z,2.00
2023-05-05T08:27:48.273Z,2.00
2023-05-05T08:30:16.637Z,1.83
2023-05-05T08:32:55.158Z,1.87
2023-05-05T08:35:23.798Z,1.70
2023-05-05T08:37:53.396Z,1.50
2023-05-05T08:40:21.319Z,1.40
2023-05-05T08:42:47.914Z,1.83
2023-05-05T08:45:14.734Z,1.53
2023-05-05T08:47:43.204Z,1.10
2023-05-05T08:50:11.211Z,1.40
2023-05-05T08:52:49.818Z,1.52
2023-05-05T08:55:25.581Z,1.33
2023-05-05T08:57:57.929Z,1.60
2023-05-05T09:00:26.544Z,1.10
2023-05-05T09:02:56.222Z,1.40
2023-05-05T09:05:22.854Z,1.70
2023-05-05T09:07:50.299Z,1.30
2023-05-05T09:10:17.342Z,1.60
2023-05-05T09:12:44.205Z,1.60
2023-05-05T09:15:12.995Z,1.85
2023-05-05T09:17:40.376Z,1.50
2023-05-05T09:20:08.810Z,1.27
2023-05-05T09:22:39.165Z,1.80
2023-05-05T09:25:07.755Z,1.40
2023-05-05T09:27:45.768Z,1.30
2023-05-05T09:30:15.922Z,1.63
2023-05-05T09:32:50.083Z,1.90
2023-05-05T09:35:18.137Z,1.50
2023-05-05T09:37:45.256Z,1.95
2023-05-05T09:40:14.311Z,1.67
2023-05-05T09:42:41.257Z,1.67
2023-05-05T09:45:20.002Z,1.60
2023-05-05T09:47:47.762Z,1.53
2023-05-05T09:50:16.339Z,2.00
2023-05-05T09:52:43.306Z,1.77
2023-05-05T09:55:18.240Z,2.15
2023-05-05T09:57:44.620Z,2.42
2023-05-05T10:00:12.488Z,2.57
2023-05-05T10:02:39.627Z,2.58
2023-05-05T10:05:19.048Z,3.08
2023-05-05T10:07:47.557Z,4.10
2023-05-05T10:10:17.244Z,4.05
2023-05-05T10:12:46.252Z,3.47
2023-05-05T10:15:15.163Z,3.30
2023-05-05T10:18:02.301Z,2.80
2023-05-05T10:20:33.553Z,1.23
2023-05-05T10:23:02.479Z,1.13
2023-05-05T10:25:33.341Z,1.97
2023-05-05T10:28:01.475Z,2.80
2023-05-05T10:30:31.983Z,2.00
2023-05-05T10:33:30.318Z,1.45
2023-05-05T10:35:57.846Z,1.30
2023-05-05T10:38:28.358Z,0.90
2023-05-05T10:40:56.416Z,0.70
2023-05-05T10:43:24.259Z,0.90
2023-05-05T10:45:51.114Z,1.15
2023-05-05T10:48:39.773Z,0.80
2023-05-05T10:51:35.145Z,1.30
2023-05-05T10:54:55.728Z,1.10
2023-05-05T10:57:25.903Z,0.90
2023-05-05T10:59:52.291Z,1.70
2023-05-05T11:02:20.201Z,0.95
2023-05-05T11:05:15.220Z,1.37
2023-05-05T11:07:42.748Z,0.98
2023-05-05T11:10:11.449Z,1.38
2023-05-05T11:13:01.907Z,1.60
2023-05-05T11:15:31.388Z,1.10
2023-05-05T11:17:59.151Z,1.07
2023-05-05T11:20:40.527Z,0.90
2023-05-05T11:23:06.988Z,0.70
2023-05-05T11:25:37.204Z,1.30
2023-05-05T11:28:09.348Z,1.02
2023-05-05T11:30:59.662Z,1.30
2023-05-05T11:33:33.115Z,0.70
2023-05-05T11:36:07.566Z,1.15
2023-05-05T11:38:55.855Z,1.92
2023-05-05T11:41:31.976Z,1.90
2023-05-05T11:44:12.397Z,2.60
2023-05-05T11:47:04.421Z,2.70
2023-05-05T11:49:32.809Z,2.88
2023-05-05T11:52:06.569Z,2.47
2023-05-05T11:54:35.789Z,2.58
2023-05-05T11:57:07.619Z,3.20
2023-05-05T11:59:39.048Z,2.67
2023-05-05T12:02:05.877Z,2.60
2023-05-05T12:04:32.577Z,2.80
2023-05-05T12:06:59.412Z,2.65
2023-05-05T12:09:26.862Z,2.70
2023-05-05T12:11:55.400Z,2.30
2023-05-05T12:14:22.986Z,2.20
2023-05-05T12:17:03.407Z,2.30
2023-05-05T12:19:33.180Z,2.20
2023-05-05T12:22:00.732Z,2.40
2023-05-05T12:24:27.358Z,2.20
2023-05-05T12:26:53.789Z,2.40
2023-05-05T12:29:29.704Z,2.30
2023-05-05T12:31:57.947Z,2.60
2023-05-05T12:34:24.518Z,1.77
2023-05-05T12:36:50.945Z,2.22
2023-05-05T12:39:17.340Z,2.17
2023-05-05T12:41:44.191Z,2.30
2023-05-05T12:44:10.670Z,2.22
2023-05-05T12:46:47.405Z,2.70
2023-05-05T12:49:14.272Z,2.47
2023-05-05T12:51:56.260Z,2.60
2023-05-05T12:54:24.343Z,2.65
2023-05-05T12:56:51.212Z,2.38
2023-05-05T12:59:24.091Z,2.90
2023-05-05T13:02:01.357Z,2.75
2023-05-05T13:04:28.953Z,2.25
2023-05-05T13:07:12.980Z,2.85
2023-05-05T13:09:39.852Z,3.17
2023-05-05T13:12:08.523Z,2.33
2023-05-05T13:14:35.226Z,2.80
2023-05-05T13:17:01.765Z,2.70
2023-05-05T13:19:28.610Z,3.40
2023-05-05T13:21:56.572Z,3.10
2023-05-05T13:24:34.451Z,2.53
2023-05-05T13:27:05.574Z,2.75
2023-05-05T13:29:32.708Z,2.75
2023-05-05T13:31:59.515Z,2.28
2023-05-05T13:34:26.861Z,2.42
2023-05-05T13:36:53.321Z,2.17
2023-05-05T13:39:19.941Z,2.65
2023-05-05T13:41:46.459Z,2.95
2023-05-05T13:44:13.848Z,3.25
2023-05-05T13:46:41.692Z,2.97
2023-05-05T13:49:08.080Z,3.00
2023-05-05T13:51:34.902Z,3.15
2023-05-05T13:54:01.514Z,2.80
2023-05-05T13:56:27.936Z,2.10
2023-05-05T13:58:54.616Z,2.55
2023-05-05T14:01:21.109Z,2.10
2023-05-05T14:03:47.529Z,1.60
2023-05-05T14:06:13.914Z,1.90
2023-05-05T14:08:40.297Z,2.25
2023-05-05T14:11:06.737Z,1.73
2023-05-05T14:13:33.077Z,1.80
2023-05-05T14:15:59.536Z,1.90
2023-05-05T14:18:25.963Z,1.80
2023-05-05T14:20:52.335Z,1.92
2023-05-05T14:23:18.725Z,1.35
2023-05-05T14:25:45.256Z,1.13
2023-05-05T14:28:11.628Z,1.40
2023-05-05T14:30:38.954Z,1.70
2023-05-05T14:33:05.391Z,1.30
2023-05-05T14:35:31.832Z,1.50
2023-05-05T14:37:58.187Z,1.60
2023-05-05T14:40:24.540Z,1.17
2023-05-05T14:42:51.058Z,1.08
2023-05-05T14:45:17.468Z,1.50
2023-05-05T14:47:43.887Z,0.93
2023-05-05T14:50:10.817Z,1.50
2023-05-05T14:52:39.238Z,1.35
2023-05-05T14:55:09.674Z,1.30
2023-05-05T14:57:36.224Z,1.33
2023-05-05T15:00:02.764Z,1.48
2023-05-05T15:02:29.300Z,1.50
2023-05-05T15:04:55.764Z,1.75
2023-05-05T15:07:22.726Z,2.15
2023-05-05T15:09:49.148Z,1.95
2023-05-05T15:12:15.522Z,1.88
2023-05-05T15:14:42.208Z,1.50
2023-05-05T15:17:08.622Z,2.05
2023-05-05T15:19:34.970Z,1.55
2023-05-05T15:22:01.328Z,1.30
2023-05-05T15:24:27.708Z,1.67
2023-05-05T15:26:54.072Z,1.67
2023-05-05T15:29:21.129Z,1.83
2023-05-05T15:31:47.841Z,1.27
2023-05-05T15:34:14.478Z,1.60
2023-05-05T15:36:41.673Z,1.48
2023-05-05T15:39:08.286Z,1.87
2023-05-05T15:41:46.783Z,1.77
2023-05-05T15:44:13.400Z,1.42
2023-05-05T15:46:41.252Z,1.83
2023-05-05T15:49:07.738Z,2.03
2023-05-05T15:51:36.324Z,2.30
2023-05-05T15:54:02.779Z,1.73
2023-05-05T15:56:29.521Z,1.30
2023-05-05T15:58:56.674Z,1.27
2023-05-05T16:01:30.375Z,1.38
2023-05-05T16:04:09.906Z,1.07
2023-05-05T16:06:36.356Z,1.00
2023-05-05T16:09:03.820Z,1.20
2023-05-05T16:11:30.826Z,1.33
2023-05-05T16:14:16.534Z,1.48
2023-05-05T16:16:49.242Z,1.43
2023-05-05T16:19:23.387Z,1.15
2023-05-05T16:21:49.753Z,1.48
2023-05-05T16:24:18.455Z,1.30
2023-05-05T16:26:46.020Z,1.10
2023-05-05T16:29:13.519Z,1.20
2023-05-05T16:31:52.892Z,0.70
2023-05-05T16:34:27.533Z,1.40
2023-05-05T16:36:56.087Z,1.40
2023-05-05T16:39:23.558Z,1.38
2023-05-05T16:42:05.876Z,1.17
2023-05-05T16:44:32.301Z,1.40
2023-05-05T16:47:01.043Z,1.10
2023-05-05T16:49:27.432Z,1.20
2023-05-05T16:51:54.021Z,1.50
2023-05-05T16:54:34.743Z,1.30
2023-05-05T16:57:02.342Z,1.30
2023-05-05T16:59:35.922Z,1.20
2023-05-05T17:02:02.406Z,0.70
2023-05-05T17:04:29.988Z,0.88
2023-05-05T17:07:16.735Z,1.10
2023-05-05T17:09:43.149Z,0.90
2023-05-05T17:12:09.617Z,1.20
2023-05-05T17:14:37.213Z,0.60
2023-05-05T17:17:13.979Z,0.80
2023-05-05T17:19:57.065Z,0.70
2023-05-05T17:22:23.471Z,0.77
2023-05-05T17:24:50.824Z,0.90
2023-05-05T17:27:17.367Z,0.90
2023-05-05T17:29:43.824Z,0.98
2023-05-05T17:32:10.317Z,0.60
2023-05-05T17:34:36.915Z,0.75
2023-05-05T17:37:03.627Z,0.68
2023-05-05T17:39:30.773Z,0.50
2023-05-05T17:41:57.162Z,0.90
2023-05-05T17:44:23.702Z,0.50
2023-05-05T17:46:50.132Z,0.70
2023-05-05T17:49:16.637Z,1.10
2023-05-05T17:51:43.070Z,0.65
2023-05-05T17:54:09.441Z,1.10
2023-05-05T17:56:37.036Z,1.10
2023-05-05T17:59:03.611Z,1.20
2023-05-05T18:01:30.013Z,0.77
2023-05-05T18:03:56.446Z,0.70
2023-05-05T18:06:22.832Z,1.17
2023-05-05T18:08:49.400Z,1.00
2023-05-05T18:11:15.845Z,1.10
2023-05-05T18:13:43.145Z,0.90
2023-05-05T18:16:09.608Z,1.33
2023-05-05T18:18:36.214Z,1.20
2023-05-05T18:21:02.661Z,0.80
2023-05-05T18:23:29.039Z,0.93
2023-05-05T18:25:55.522Z,1.23
2023-05-05T18:28:21.997Z,1.02
2023-05-05T18:30:48.602Z,0.90
2023-05-05T18:33:14.982Z,0.90
2023-05-05T18:35:41.360Z,1.20
2023-05-05T18:38:20.172Z,0.80
2023-05-05T18:40:55.964Z,1.30
2023-05-05T18:43:22.527Z,1.00
2023-05-05T18:45:48.974Z,1.00
2023-05-05T18:48:15.385Z,1.40
2023-05-05T18:50:41.868Z,1.10
2023-05-05T18:53:10.714Z,1.00
2023-05-05T18:55:37.282Z,1.38
2023-05-05T18:58:03.687Z,0.90
2023-05-05T19:00:30.168Z,1.10
2023-05-05T19:02:56.812Z,1.05
2023-05-05T19:05:23.409Z,1.40
2023-05-05T19:07:49.795Z,1.48
2023-05-05T19:10:16.386Z,1.13
2023-05-05T19:12:42.901Z,1.20
2023-05-05T19:15:09.907Z,1.55
2023-05-05T19:17:36.810Z,1.80
2023-05-05T19:20:03.379Z,3.78
2023-05-05T19:22:29.758Z,6.33
2023-05-05T19:24:56.157Z,4.93
2023-05-05T19:27:22.563Z,2.80
2023-05-05T19:29:52.671Z,2.60
2023-05-05T19:32:21.120Z,2.90
2023-05-05T19:34:48.019Z,3.60
2023-05-05T19:37:14.515Z,3.72
2023-05-05T19:39:43.102Z,3.10
2023-05-05T19:42:09.708Z,3.40
2023-05-05T19:44:36.127Z,2.50
2023-05-05T19:47:02.611Z,1.90
2023-05-05T19:49:29.044Z,1.48
2023-05-05T19:51:56.989Z,2.10
2023-05-05T19:54:24.684Z,2.53
2023-05-05T19:56:51.875Z,2.70
2023-05-05T19:59:18.498Z,2.47
2023-05-05T20:01:45.317Z,2.28
2023-05-05T20:04:11.934Z,2.33
2023-05-05T20:06:38.560Z,2.30
2023-05-05T20:09:05.345Z,2.58
2023-05-05T20:11:32.007Z,2.23
2023-05-05T20:13:58.684Z,1.90
2023-05-05T20:16:25.644Z,2.35
2023-05-05T20:18:52.291Z,2.28
2023-05-05T20:21:18.993Z,2.60
2023-05-05T20:23:46.102Z,2.40
2023-05-05T20:26:13.177Z,2.05
2023-05-05T20:28:45.273Z,2.05
2023-05-05T20:31:14.931Z,1.88
2023-05-05T20:33:41.394Z,2.15
2023-05-05T20:36:07.945Z,2.47
2023-05-05T20:38:34.577Z,2.63
2023-05-05T20:41:01.326Z,2.80
2023-05-05T20:43:27.879Z,2.40
2023-05-05T20:45:54.304Z,2.30
2023-05-05T20:48:20.979Z,2.57
2023-05-05T20:50:47.468Z,2.15
2023-05-05T20:53:14.852Z,2.53
2023-05-05T20:55:41.529Z,2.33
2023-05-05T20:58:07.905Z,3.00
2023-05-05T21:00:34.544Z,3.37
2023-05-05T21:03:02.737Z,3.05
2023-05-05T21:05:29.761Z,3.47
2023-05-05T21:07:57.326Z,3.30
2023-05-05T21:10:25.016Z,3.70
2023-05-05T21:12:51.524Z,3.80
2023-05-05T21:15:18.026Z,3.85
2023-05-05T21:17:44.589Z,3.60
2023-05-05T21:20:11.877Z,3.90
2023-05-05T21:22:38.658Z,4.13
2023-05-05T21:25:16.805Z,5.50
2023-05-05T21:27:43.405Z,4.88
2023-05-05T21:30:11.454Z,4.97
2023-05-05T21:32:38.786Z,4.47
2023-05-05T21:35:06.749Z,4.13
2023-05-05T21:37:33.478Z,3.40
2023-05-05T21:39:59.893Z,3.08
2023-05-05T21:42:26.915Z,2.88
2023-05-05T21:44:53.304Z,3.25
2023-05-05T21:47:19.751Z,3.88
2023-05-05T21:49:46.166Z,3.70
2023-05-05T21:52:12.681Z,3.72
2023-05-05T21:54:39.096Z,3.20
2023-05-05T21:57:06.355Z,3.20
2023-05-05T21:59:32.768Z,3.40
2023-05-05T22:01:59.256Z,3.57
2023-05-05T22:04:25.731Z,3.97
2023-05-05T22:06:52.226Z,3.05
2023-05-05T22:09:18.778Z,3.05
2023-05-05T22:11:45.162Z,3.47
2023-05-05T22:14:11.542Z,3.93
2023-05-05T22:16:38.066Z,3.80
2023-05-05T22:19:04.585Z,4.20
2023-05-05T22:21:31.550Z,3.65
2023-05-05T22:23:57.975Z,4.28
2023-05-05T22:26:24.366Z,3.40
2023-05-05T22:28:51.053Z,3.78
2023-05-05T22:31:17.480Z,3.67
2023-05-05T22:33:44.277Z,3.40
2023-05-05T22:36:11.520Z,3.33
2023-05-05T22:38:38.031Z,4.17
2023-05-05T22:41:06.444Z,4.38
2023-05-05T22:43:32.869Z,3.97
2023-05-05T22:45:59.279Z,3.83
2023-05-05T22:48:25.724Z,3.97
2023-05-05T22:50:52.086Z,3.63
2023-05-05T22:53:18.460Z,3.60
2023-05-05T22:55:44.954Z,3.83
2023-05-05T22:58:11.554Z,4.18
2023-05-05T23:00:37.918Z,3.83
2023-05-05T23:03:04.591Z,3.70
2023-05-05T23:05:31.090Z,3.58
2023-05-05T23:07:59.924Z,3.60
2023-05-05T23:10:26.455Z,4.40
2023-05-05T23:12:53.843Z,3.78
2023-05-05T23:15:21.630Z,4.50
2023-05-05T23:17:48.177Z,4.00
2023-05-05T23:20:15.195Z,4.10
2023-05-05T23:22:41.663Z,3.70
2023-05-05T23:25:08.651Z,3.85
2023-05-05T23:27:35.222Z,3.70
2023-05-05T23:30:01.621Z,4.20
2023-05-05T23:32:28.053Z,3.83
2023-05-05T23:34:54.486Z,3.97
2023-05-05T23:37:20.919Z,3.38
2023-05-05T23:39:47.346Z,4.13
2023-05-05T23:42:13.728Z,3.92
2023-05-05T23:44:40.086Z,3.80
2023-05-05T23:47:06.455Z,4.38
2023-05-05T23:49:32.935Z,3.50
2023-05-05T23:51:59.309Z,3.73
2023-05-05T23:54:26.128Z,4.63
2023-05-05T23:56:52.491Z,4.72
2023-05-05T23:59:19.087Z,4.95
